createdAt,value
2018-01-27T00:00:30.071Z,101214.45
2018-01-27T00:01:35.816Z,101217.13
2018-01-27T00:02:41.691Z,101216.22
2018-01-27T00:03:46.944Z,101213.58
2018-01-27T00:04:53.133Z,101216.63
2018-01-27T00:05:58.966Z,101217.58
2018-01-27T00:07:04.719Z,101215.79
2018-01-27T00:08:10.527Z,101215.79
2018-01-27T00:09:16.933Z,101220.13
2018-01-27T00:10:22.386Z,101222.32
2018-01-27T00:11:28.125Z,101221.87
2018-01-27T00:12:33.892Z,101224.89
2018-01-27T00:13:39.525Z,101225.78
2018-01-27T00:14:45.831Z,101228.80
2018-01-27T00:15:51.627Z,101229.64
2018-01-27T00:16:58.147Z,101230.95
2018-01-27T00:18:03.908Z,101233.19
2018-01-27T00:19:09.695Z,101241.09
2018-01-27T00:20:15.316Z,101244.94
2018-01-27T00:21:21.842Z,101244.82
2018-01-27T00:22:26.762Z,101240.45
2018-01-27T00:23:32.525Z,101246.98
2018-01-27T00:24:39.087Z,101246.44
2018-01-27T00:25:45.610Z,101249.04
2018-01-27T00:26:51.340Z,101244.66
2018-01-27T00:27:57.080Z,101245.97
2018-01-27T00:29:02.868Z,101244.20
2018-01-27T00:30:09.407Z,101239.84
2018-01-27T00:31:15.163Z,101246.02
2018-01-27T00:32:21.157Z,101244.37
2018-01-27T00:33:26.899Z,101247.01
2018-01-27T00:34:32.667Z,101243.08
2018-01-27T00:35:38.496Z,101249.17
2018-01-27T00:36:44.260Z,101247.46
2018-01-27T00:37:50.019Z,101257.08
2018-01-27T00:38:55.779Z,101251.39
2018-01-27T00:40:02.285Z,101252.64
2018-01-27T00:41:08.161Z,101255.67
2018-01-27T00:42:14.732Z,101248.16
2018-01-27T00:43:21.260Z,101253.41
2018-01-27T00:44:26.992Z,101249.90
2018-01-27T00:45:32.751Z,101257.29
2018-01-27T00:46:38.550Z,101253.34
2018-01-27T00:47:44.318Z,101249.84
2018-01-27T00:48:50.074Z,101248.50
2018-01-27T00:49:55.834Z,101250.63
2018-01-27T00:51:01.587Z,101252.05
2018-01-27T00:52:07.360Z,101255.53
2018-01-27T00:53:13.126Z,101248.55
2018-01-27T00:54:18.872Z,101249.49
2018-01-27T00:55:24.618Z,101256.49
2018-01-27T00:56:30.353Z,101260.06
2018-01-27T00:57:36.122Z,101258.03
2018-01-27T00:58:41.883Z,101267.80
2018-01-27T00:59:48.414Z,101263.42
2018-01-27T01:00:54.167Z,101263.84
2018-01-27T01:01:59.943Z,101265.22
2018-01-27T01:03:05.732Z,101266.47
2018-01-27T01:04:11.524Z,101264.26
2018-01-27T01:05:17.265Z,101265.53
2018-01-27T01:06:23.003Z,101266.57
2018-01-27T01:07:28.756Z,101271.37
2018-01-27T01:08:34.548Z,101266.64
2018-01-27T01:09:40.293Z,101268.05
2018-01-27T01:10:46.034Z,101271.20
2018-01-27T01:11:51.799Z,101273.87
2018-01-27T01:12:58.318Z,101266.86
2018-01-27T01:14:04.118Z,101267.73
2018-01-27T01:15:09.848Z,101269.52
2018-01-27T01:16:16.361Z,101273.39
2018-01-27T01:17:22.113Z,101271.65
2018-01-27T01:18:27.877Z,101269.93
2018-01-27T01:19:34.633Z,101274.28
2018-01-27T01:20:40.384Z,101269.45
2018-01-27T01:21:46.905Z,101266.82
2018-01-27T01:22:52.649Z,101272.53
2018-01-27T01:23:58.380Z,101272.95
2018-01-27T01:25:04.160Z,101281.73
2018-01-27T01:26:09.897Z,101273.58
2018-01-27T01:27:15.628Z,101275.90
2018-01-27T01:28:21.368Z,101272.89
2018-01-27T01:29:27.110Z,101279.45
2018-01-27T01:30:32.911Z,101274.27
2018-01-27T01:31:38.672Z,101276.44
2018-01-27T01:32:44.421Z,101277.27
2018-01-27T01:33:50.153Z,101273.39
2018-01-27T01:34:55.023Z,101279.94
2018-01-27T01:36:01.666Z,101283.91
2018-01-27T01:37:07.415Z,101282.56
2018-01-27T01:38:13.938Z,101293.84
2018-01-27T01:39:19.687Z,101289.02
2018-01-27T01:40:25.444Z,101292.06
2018-01-27T01:41:31.209Z,101293.78
2018-01-27T01:42:43.051Z,101299.49
2018-01-27T01:43:54.029Z,101295.66
2018-01-27T01:44:59.763Z,101295.69
2018-01-27T01:46:05.515Z,101297.02
2018-01-27T01:47:11.289Z,101304.55
2018-01-27T01:48:17.784Z,101304.14
2018-01-27T01:49:26.078Z,101303.28
2018-01-27T01:50:31.838Z,101301.20
2018-01-27T01:51:37.572Z,101305.78
2018-01-27T01:52:44.151Z,101302.27
2018-01-27T01:53:50.075Z,101302.28
2018-01-27T01:54:55.806Z,101305.44
2018-01-27T01:56:01.568Z,101301.98
2018-01-27T01:57:07.303Z,101298.56
2018-01-27T01:58:13.075Z,101302.94
2018-01-27T01:59:18.830Z,101303.34
2018-01-27T02:00:25.328Z,101307.30
2018-01-27T02:01:31.082Z,101303.01
2018-01-27T02:02:36.807Z,101310.79
2018-01-27T02:03:42.591Z,101306.86
2018-01-27T02:04:48.343Z,101306.50
2018-01-27T02:05:54.088Z,101309.59
2018-01-27T02:06:59.175Z,101306.52
2018-01-27T02:08:04.926Z,101311.33
2018-01-27T02:09:10.685Z,101306.50
2018-01-27T02:10:16.438Z,101307.86
2018-01-27T02:11:21.937Z,101309.67
2018-01-27T02:12:27.673Z,101312.31
2018-01-27T02:13:33.406Z,101308.42
2018-01-27T02:14:39.178Z,101309.75
2018-01-27T02:15:44.917Z,101311.14
2018-01-27T02:16:50.701Z,101310.27
2018-01-27T02:17:57.239Z,101311.63
2018-01-27T02:19:03.125Z,101316.91
2018-01-27T02:20:08.887Z,101315.59
2018-01-27T02:21:14.628Z,101312.59
2018-01-27T02:22:20.364Z,101312.68
2018-01-27T02:23:26.103Z,101313.56
2018-01-27T02:24:31.516Z,101318.81
2018-01-27T02:25:38.029Z,101316.69
2018-01-27T02:26:43.753Z,101317.50
2018-01-27T02:27:49.499Z,101325.28
2018-01-27T02:28:55.251Z,101321.32
2018-01-27T02:30:00.993Z,101321.25
2018-01-27T02:31:06.773Z,101322.99
2018-01-27T02:32:13.270Z,101325.98
2018-01-27T02:33:19.009Z,101325.45
2018-01-27T02:34:24.762Z,101325.90
2018-01-27T02:35:30.492Z,101323.67
2018-01-27T02:36:36.267Z,101321.85
2018-01-27T02:37:42.019Z,101325.31
2018-01-27T02:38:47.776Z,101327.46
2018-01-27T02:39:54.038Z,101322.66
2018-01-27T02:40:59.646Z,101322.64
2018-01-27T02:42:05.083Z,101329.63
2018-01-27T02:43:10.862Z,101327.46
2018-01-27T02:44:16.600Z,101321.37
2018-01-27T02:45:21.685Z,101327.50
2018-01-27T02:46:27.464Z,101333.19
2018-01-27T02:47:33.255Z,101334.92
2018-01-27T02:48:39.005Z,101334.98
2018-01-27T02:49:44.724Z,101335.45
2018-01-27T02:50:50.479Z,101336.75
2018-01-27T02:51:55.898Z,101335.89
2018-01-27T02:53:01.679Z,101338.95
2018-01-27T02:54:08.196Z,101344.19
2018-01-27T02:55:13.960Z,101342.89
2018-01-27T02:56:19.719Z,101337.27
2018-01-27T02:57:25.230Z,101341.69
2018-01-27T02:58:30.808Z,101337.37
2018-01-27T02:59:37.474Z,101336.97
2018-01-27T03:00:43.239Z,101339.23
2018-01-27T03:01:48.973Z,101337.98
2018-01-27T03:02:54.719Z,101335.44
2018-01-27T03:04:00.483Z,101336.80
2018-01-27T03:05:06.220Z,101342.93
2018-01-27T03:06:11.952Z,101339.94
2018-01-27T03:07:17.708Z,101343.96
2018-01-27T03:08:23.470Z,101340.55
2018-01-27T03:09:29.248Z,101340.22
2018-01-27T03:10:34.993Z,101343.28
2018-01-27T03:11:40.722Z,101338.97
2018-01-27T03:12:46.472Z,101338.98
2018-01-27T03:13:52.207Z,101345.94
2018-01-27T03:14:58.747Z,101348.12
2018-01-27T03:16:04.478Z,101345.97
2018-01-27T03:17:10.276Z,101345.63
2018-01-27T03:18:16.003Z,101346.96
2018-01-27T03:19:21.776Z,101349.59
2018-01-27T03:20:27.367Z,101357.00
2018-01-27T03:21:33.869Z,101352.21
2018-01-27T03:22:39.609Z,101352.73
2018-01-27T03:23:45.371Z,101351.89
2018-01-27T03:24:51.108Z,101351.43
2018-01-27T03:25:56.891Z,101351.41
2018-01-27T03:27:03.168Z,101352.30
2018-01-27T03:28:08.582Z,101356.59
2018-01-27T03:29:15.099Z,101353.98
2018-01-27T03:30:20.823Z,101361.38
2018-01-27T03:31:26.612Z,101361.81
2018-01-27T03:32:32.367Z,101361.78
2018-01-27T03:33:38.896Z,101365.24
2018-01-27T03:34:44.629Z,101362.56
2018-01-27T03:35:50.380Z,101362.09
2018-01-27T03:36:55.793Z,101369.03
2018-01-27T03:38:01.526Z,101374.62
2018-01-27T03:39:07.265Z,101377.66
2018-01-27T03:40:13.025Z,101378.48
2018-01-27T03:41:18.755Z,101380.59
2018-01-27T03:42:24.534Z,101382.75
2018-01-27T03:43:30.285Z,101380.11
2018-01-27T03:44:36.779Z,101385.77
2018-01-27T03:45:41.862Z,101394.03
2018-01-27T03:46:48.414Z,101388.70
2018-01-27T03:47:54.207Z,101391.30
2018-01-27T03:48:59.972Z,101395.63
2018-01-27T03:50:05.740Z,101397.75
2018-01-27T03:51:11.472Z,101402.52
2018-01-27T03:52:17.226Z,101404.71
2018-01-27T03:53:22.968Z,101400.37
2018-01-27T03:54:29.480Z,101399.92
2018-01-27T03:55:35.232Z,101408.58
2018-01-27T03:56:40.750Z,101401.67
2018-01-27T03:57:46.493Z,101408.16
2018-01-27T03:58:52.264Z,101409.45
2018-01-27T03:59:58.039Z,101404.14
2018-01-27T04:01:04.536Z,101409.00
2018-01-27T04:02:10.288Z,101405.60
2018-01-27T04:03:16.035Z,101410.33
2018-01-27T04:04:21.816Z,101413.81
2018-01-27T04:05:28.320Z,101416.84
2018-01-27T04:06:34.055Z,101419.78
2018-01-27T04:07:39.801Z,101421.01
2018-01-27T04:08:45.537Z,101418.36
2018-01-27T04:09:50.960Z,101424.42
2018-01-27T04:10:56.376Z,101422.23
2018-01-27T04:12:02.896Z,101427.03
2018-01-27T04:13:08.667Z,101427.03
2018-01-27T04:14:14.393Z,101431.33
2018-01-27T04:15:20.162Z,101431.72
2018-01-27T04:16:26.678Z,101432.57
2018-01-27T04:17:32.442Z,101431.69
2018-01-27T04:18:38.953Z,101435.57
2018-01-27T04:19:44.692Z,101434.64
2018-01-27T04:20:50.460Z,101438.55
2018-01-27T04:21:56.196Z,101437.67
2018-01-27T04:23:01.946Z,101436.83
2018-01-27T04:24:07.706Z,101437.22
2018-01-27T04:25:14.963Z,101444.20
2018-01-27T04:26:21.535Z,101448.92
2018-01-27T04:27:28.779Z,101441.50
2018-01-27T04:28:33.875Z,101442.81
2018-01-27T04:29:40.181Z,101446.30
2018-01-27T04:30:45.946Z,101445.02
2018-01-27T04:31:52.476Z,101444.10
2018-01-27T04:32:58.219Z,101453.25
2018-01-27T04:34:04.176Z,101451.51
2018-01-27T04:35:09.947Z,101449.77
2018-01-27T04:36:16.454Z,101453.28
2018-01-27T04:37:22.205Z,101448.05
2018-01-27T04:38:27.963Z,101445.88
2018-01-27T04:39:33.702Z,101446.39
2018-01-27T04:40:39.443Z,101446.91
2018-01-27T04:41:45.185Z,101448.76
2018-01-27T04:42:51.098Z,101453.59
2018-01-27T04:43:56.607Z,101447.59
2018-01-27T04:45:02.388Z,101456.00
2018-01-27T04:46:08.125Z,101459.52
2018-01-27T04:47:13.872Z,101458.73
2018-01-27T04:48:19.681Z,101458.79
2018-01-27T04:49:25.424Z,101462.30
2018-01-27T04:50:31.178Z,101463.24
2018-01-27T04:51:36.928Z,101468.48
2018-01-27T04:52:42.663Z,101477.66
2018-01-27T04:53:48.438Z,101472.45
2018-01-27T04:54:54.192Z,101469.91
2018-01-27T04:55:59.922Z,101480.42
2018-01-27T04:57:05.655Z,101475.66
2018-01-27T04:58:11.391Z,101473.91
2018-01-27T04:59:17.167Z,101473.91
2018-01-27T05:00:23.685Z,101475.64
2018-01-27T05:01:29.417Z,101483.50
2018-01-27T05:02:35.169Z,101481.30
2018-01-27T05:03:40.907Z,101483.92
2018-01-27T05:04:46.661Z,101483.45
2018-01-27T05:05:52.391Z,101486.94
2018-01-27T05:06:57.823Z,101484.30
2018-01-27T05:08:03.558Z,101487.30
2018-01-27T05:09:09.281Z,101490.34
2018-01-27T05:10:15.035Z,101489.48
2018-01-27T05:11:20.854Z,101492.05
2018-01-27T05:12:26.606Z,101492.45
2018-01-27T05:13:32.350Z,101495.84
2018-01-27T05:14:37.430Z,101495.38
2018-01-27T05:15:44.794Z,101499.72
2018-01-27T05:16:51.290Z,101496.16
2018-01-27T05:17:57.797Z,101497.45
2018-01-27T05:19:03.520Z,101496.55
2018-01-27T05:20:09.255Z,101491.31
2018-01-27T05:21:15.053Z,101496.98
2018-01-27T05:22:20.776Z,101497.44
2018-01-27T05:23:26.510Z,101504.02
2018-01-27T05:24:32.249Z,101500.17
2018-01-27T05:25:38.002Z,101503.71
2018-01-27T05:26:43.776Z,101505.12
2018-01-27T05:27:50.422Z,101504.72
2018-01-27T05:28:56.162Z,101506.94
2018-01-27T05:30:02.891Z,101507.41
2018-01-27T05:31:08.629Z,101507.00
2018-01-27T05:32:14.388Z,101508.77
2018-01-27T05:33:20.181Z,101506.14
2018-01-27T05:34:26.692Z,101510.09
2018-01-27T05:35:32.443Z,101511.86
2018-01-27T05:36:38.214Z,101506.23
2018-01-27T05:37:44.747Z,101514.95
2018-01-27T05:38:50.472Z,101513.67
2018-01-27T05:39:56.200Z,101518.08
2018-01-27T05:41:01.965Z,101517.23
2018-01-27T05:42:07.723Z,101517.72
2018-01-27T05:43:14.309Z,101520.77
2018-01-27T05:44:20.818Z,101526.00
2018-01-27T05:45:26.567Z,101526.45
2018-01-27T05:46:32.326Z,101527.33
2018-01-27T05:47:38.059Z,101526.44
2018-01-27T05:48:43.820Z,101529.48
2018-01-27T05:49:50.316Z,101525.98
2018-01-27T05:50:56.052Z,101527.68
2018-01-27T05:52:01.812Z,101528.97
2018-01-27T05:53:08.053Z,101528.95
2018-01-27T05:54:13.816Z,101525.91
2018-01-27T05:55:19.578Z,101529.42
2018-01-27T05:56:25.321Z,101532.92
2018-01-27T05:57:31.812Z,101531.22
2018-01-27T05:58:38.122Z,101533.41
2018-01-27T05:59:43.880Z,101536.90
2018-01-27T06:00:49.606Z,101546.05
2018-01-27T06:01:55.353Z,101540.33
2018-01-27T06:03:01.107Z,101545.56
2018-01-27T06:04:08.432Z,101542.99
2018-01-27T06:05:14.193Z,101549.10
2018-01-27T06:06:19.938Z,101546.94
2018-01-27T06:07:25.691Z,101551.73
2018-01-27T06:08:31.234Z,101553.05
2018-01-27T06:09:37.730Z,101559.08
2018-01-27T06:10:43.931Z,101560.38
2018-01-27T06:11:49.494Z,101562.14
2018-01-27T06:12:55.239Z,101563.45
2018-01-27T06:14:00.991Z,101563.06
2018-01-27T06:15:07.285Z,101562.14
2018-01-27T06:16:13.110Z,101564.76
2018-01-27T06:17:18.858Z,101567.79
2018-01-27T06:18:24.439Z,101570.41
2018-01-27T06:19:29.992Z,101571.70
2018-01-27T06:20:35.722Z,101574.30
2018-01-27T06:21:42.326Z,101580.40
2018-01-27T06:22:48.071Z,101581.27
2018-01-27T06:23:53.632Z,101589.09
2018-01-27T06:24:59.387Z,101583.44
2018-01-27T06:26:04.917Z,101581.63
2018-01-27T06:27:09.834Z,101581.63
2018-01-27T06:28:15.589Z,101587.30
2018-01-27T06:29:21.320Z,101591.66
2018-01-27T06:30:27.067Z,101596.45
2018-01-27T06:31:32.797Z,101595.16
2018-01-27T06:32:38.556Z,101589.93
2018-01-27T06:33:44.297Z,101594.72
2018-01-27T06:34:49.383Z,101594.77
2018-01-27T06:35:55.159Z,101596.08
2018-01-27T06:37:00.565Z,101599.09
2018-01-27T06:38:06.342Z,101595.64
2018-01-27T06:39:12.127Z,101600.02
2018-01-27T06:40:17.957Z,101595.67
2018-01-27T06:41:24.556Z,101598.33
2018-01-27T06:42:30.009Z,101598.83
2018-01-27T06:43:35.784Z,101600.57
2018-01-27T06:44:41.567Z,101603.63
2018-01-27T06:45:47.308Z,101605.39
2018-01-27T06:46:53.063Z,101604.08
2018-01-27T06:47:58.892Z,101606.70
2018-01-27T06:49:04.653Z,101611.52
2018-01-27T06:50:10.386Z,101614.14
2018-01-27T06:51:16.125Z,101615.42
2018-01-27T06:52:21.897Z,101610.55
2018-01-27T06:53:27.651Z,101614.90
2018-01-27T06:54:34.927Z,101612.26
2018-01-27T06:55:40.656Z,101617.92
2018-01-27T06:56:46.438Z,101610.50
2018-01-27T06:57:53.289Z,101617.91
2018-01-27T06:58:59.029Z,101622.27
2018-01-27T07:00:04.703Z,101622.73
2018-01-27T07:01:10.471Z,101627.09
2018-01-27T07:02:16.231Z,101632.86
2018-01-27T07:03:21.986Z,101631.60
2018-01-27T07:04:27.717Z,101634.22
2018-01-27T07:05:33.515Z,101636.44
2018-01-27T07:06:39.274Z,101638.12
2018-01-27T07:07:45.014Z,101631.98
2018-01-27T07:08:51.559Z,101638.45
2018-01-27T07:09:56.628Z,101640.59
2018-01-27T07:11:02.394Z,101640.15
2018-01-27T07:12:08.919Z,101639.64
2018-01-27T07:13:14.654Z,101639.25
2018-01-27T07:14:20.388Z,101646.63
2018-01-27T07:15:26.132Z,101642.25
2018-01-27T07:16:31.907Z,101648.80
2018-01-27T07:17:37.633Z,101648.34
2018-01-27T07:18:43.382Z,101647.48
2018-01-27T07:19:49.114Z,101650.11
2018-01-27T07:20:54.859Z,101653.59
2018-01-27T07:22:00.624Z,101656.66
2018-01-27T07:23:07.141Z,101659.33
2018-01-27T07:24:13.167Z,101656.33
2018-01-27T07:25:18.264Z,101655.03
2018-01-27T07:26:24.762Z,101653.34
2018-01-27T07:27:30.546Z,101658.14
2018-01-27T07:28:36.315Z,101659.90
2018-01-27T07:29:41.865Z,101655.53
2018-01-27T07:30:47.667Z,101665.98
2018-01-27T07:31:53.424Z,101663.36
2018-01-27T07:32:59.898Z,101662.86
2018-01-27T07:34:05.813Z,101665.90
2018-01-27T07:35:12.133Z,101662.38
2018-01-27T07:36:17.862Z,101670.17
2018-01-27T07:37:23.607Z,101662.73
2018-01-27T07:38:29.368Z,101665.34
2018-01-27T07:39:35.109Z,101671.41
2018-01-27T07:40:40.836Z,101668.30
2018-01-27T07:41:46.574Z,101670.90
2018-01-27T07:42:52.309Z,101674.81
2018-01-27T07:43:58.088Z,101670.86
2018-01-27T07:45:03.840Z,101672.08
2018-01-27T07:46:09.573Z,101671.17
2018-01-27T07:47:15.329Z,101673.78
2018-01-27T07:48:21.829Z,101671.10
2018-01-27T07:49:27.897Z,101673.68
2018-01-27T07:50:33.749Z,101674.47
2018-01-27T07:51:39.562Z,101677.49
2018-01-27T07:52:44.440Z,101680.91
2018-01-27T07:53:50.937Z,101675.22
2018-01-27T07:54:56.388Z,101675.19
2018-01-27T07:56:02.137Z,101673.01
2018-01-27T07:57:07.880Z,101675.61
2018-01-27T07:58:13.657Z,101684.67
2018-01-27T07:59:20.171Z,101681.10
2018-01-27T08:00:25.934Z,101685.84
2018-01-27T08:01:31.664Z,101685.34
2018-01-27T08:02:37.400Z,101693.17
2018-01-27T08:03:43.159Z,101691.37
2018-01-27T08:04:48.906Z,101692.17
2018-01-27T08:05:54.687Z,101695.61
2018-01-27T08:07:00.100Z,101695.13
2018-01-27T08:08:06.599Z,101698.13
2018-01-27T08:09:12.333Z,101701.59
2018-01-27T08:10:18.075Z,101699.35
2018-01-27T08:11:23.834Z,101700.62
2018-01-27T08:12:29.593Z,101708.89
2018-01-27T08:13:35.350Z,101712.33
2018-01-27T08:14:41.099Z,101712.28
2018-01-27T08:15:46.837Z,101709.64
2018-01-27T08:16:54.128Z,101708.27
2018-01-27T08:18:00.657Z,101708.67
2018-01-27T08:19:06.404Z,101708.20
2018-01-27T08:20:12.144Z,101711.64
2018-01-27T08:21:17.878Z,101712.06
2018-01-27T08:22:23.663Z,101709.88
2018-01-27T08:23:30.176Z,101711.18
2018-01-27T08:24:36.713Z,101714.22
2018-01-27T08:25:42.442Z,101718.13
2018-01-27T08:26:47.869Z,101719.86
2018-01-27T08:27:53.713Z,101717.63
2018-01-27T08:28:59.446Z,101723.69
2018-01-27T08:30:05.238Z,101717.55
2018-01-27T08:31:10.968Z,101728.87
2018-01-27T08:32:16.531Z,101724.92
2018-01-27T08:33:23.816Z,101728.37
2018-01-27T08:34:29.566Z,101730.06
2018-01-27T08:35:36.087Z,101727.88
2018-01-27T08:36:41.825Z,101726.67
2018-01-27T08:37:47.592Z,101725.39
2018-01-27T08:38:54.170Z,101727.67
2018-01-27T08:39:59.901Z,101733.85
2018-01-27T08:41:06.430Z,101728.16
2018-01-27T08:42:12.168Z,101727.18
2018-01-27T08:43:17.911Z,101731.95
2018-01-27T08:44:23.722Z,101729.64
2018-01-27T08:45:30.471Z,101728.25
2018-01-27T08:46:36.990Z,101731.35
2018-01-27T08:47:42.750Z,101722.64
2018-01-27T08:48:49.272Z,101722.20
2018-01-27T08:49:55.034Z,101728.33
2018-01-27T08:51:00.776Z,101725.66
2018-01-27T08:52:06.542Z,101723.94
2018-01-27T08:53:13.064Z,101723.47
2018-01-27T08:54:18.838Z,101726.51
2018-01-27T08:55:26.106Z,101722.44
2018-01-27T08:56:31.859Z,101730.59
2018-01-27T08:57:38.385Z,101723.38
2018-01-27T08:58:44.163Z,101717.60
2018-01-27T08:59:50.673Z,101717.11
2018-01-27T09:00:56.554Z,101724.98
2018-01-27T09:02:02.297Z,101726.72
2018-01-27T09:03:08.089Z,101720.14
2018-01-27T09:04:14.628Z,101724.83
2018-01-27T09:05:20.389Z,101724.69
2018-01-27T09:06:26.196Z,101729.70
2018-01-27T09:07:31.971Z,101729.97
2018-01-27T09:08:37.727Z,101734.20
2018-01-27T09:09:43.488Z,101738.90
2018-01-27T09:10:50.238Z,101738.31
2018-01-27T09:11:56.009Z,101743.88
2018-01-27T09:13:02.533Z,101738.09
2018-01-27T09:14:08.267Z,101738.89
2018-01-27T09:15:14.069Z,101747.14
2018-01-27T09:16:19.835Z,101741.87
2018-01-27T09:17:25.618Z,101744.00
2018-01-27T09:18:31.044Z,101737.89
2018-01-27T09:19:36.811Z,101742.22
2018-01-27T09:20:43.329Z,101744.39
2018-01-27T09:21:49.061Z,101748.95
2018-01-27T09:22:54.875Z,101746.59
2018-01-27T09:24:00.860Z,101749.99
2018-01-27T09:25:06.290Z,101749.08
2018-01-27T09:26:12.039Z,101752.11
2018-01-27T09:27:17.811Z,101753.84
2018-01-27T09:28:24.353Z,101748.52
2018-01-27T09:29:30.512Z,101751.64
2018-01-27T09:30:37.043Z,101743.39
2018-01-27T09:31:43.339Z,101745.26
2018-01-27T09:32:50.074Z,101745.74
2018-01-27T09:33:56.625Z,101739.29
2018-01-27T09:35:03.343Z,101747.22
2018-01-27T09:36:08.858Z,101751.25
2018-01-27T09:37:15.381Z,101753.88
2018-01-27T09:38:22.160Z,101755.64
2018-01-27T09:39:29.592Z,101759.54
2018-01-27T09:40:36.981Z,101759.09
2018-01-27T09:41:42.909Z,101761.18
2018-01-27T09:42:48.664Z,101765.10
2018-01-27T09:43:54.431Z,101762.64
2018-01-27T09:44:59.922Z,101758.38
2018-01-27T09:46:06.596Z,101761.27
2018-01-27T09:47:12.350Z,101765.58
2018-01-27T09:48:18.215Z,101763.79
2018-01-27T09:49:24.010Z,101764.98
2018-01-27T09:50:30.549Z,101760.44
2018-01-27T09:51:36.311Z,101758.52
2018-01-27T09:52:41.958Z,101764.49
2018-01-27T09:53:47.853Z,101760.00
2018-01-27T09:54:53.599Z,101767.38
2018-01-27T09:55:59.379Z,101766.36
2018-01-27T09:57:05.911Z,101767.09
2018-01-27T09:58:12.513Z,101764.75
2018-01-27T09:59:18.282Z,101766.50
2018-01-27T10:00:23.794Z,101767.21
2018-01-27T10:01:29.677Z,101765.37
2018-01-27T10:02:35.548Z,101763.98
2018-01-27T10:03:41.296Z,101760.75
2018-01-27T10:04:48.135Z,101756.70
2018-01-27T10:05:53.887Z,101759.44
2018-01-27T10:07:01.177Z,101760.83
2018-01-27T10:08:06.929Z,101759.59
2018-01-27T10:09:14.392Z,101754.07
2018-01-27T10:10:21.093Z,101759.88
2018-01-27T10:11:26.852Z,101757.55
2018-01-27T10:12:32.619Z,101762.91
2018-01-27T10:13:38.349Z,101762.56
2018-01-27T10:14:44.121Z,101766.48
2018-01-27T10:15:52.552Z,101764.12
2018-01-27T10:16:59.071Z,101761.65
2018-01-27T10:18:04.855Z,101762.56
2018-01-27T10:19:11.390Z,101767.23
2018-01-27T10:20:17.157Z,101764.42
2018-01-27T10:21:22.653Z,101764.95
2018-01-27T10:22:28.408Z,101765.53
2018-01-27T10:23:34.189Z,101769.09
2018-01-27T10:24:39.971Z,101768.93
2018-01-27T10:25:45.972Z,101772.50
2018-01-27T10:26:52.512Z,101770.42
2018-01-27T10:27:59.069Z,101767.80
2018-01-27T10:29:05.748Z,101774.27
2018-01-27T10:30:11.112Z,101770.23
2018-01-27T10:31:16.864Z,101767.71
2018-01-27T10:32:22.645Z,101772.75
2018-01-27T10:33:28.519Z,101772.87
2018-01-27T10:34:35.157Z,101774.21
2018-01-27T10:35:41.001Z,101771.84
2018-01-27T10:36:47.787Z,101778.00
2018-01-27T10:37:54.322Z,101777.85
2018-01-27T10:39:00.887Z,101776.48
2018-01-27T10:40:08.115Z,101773.66
2018-01-27T10:41:14.728Z,101776.59
2018-01-27T10:42:21.076Z,101776.02
2018-01-27T10:43:26.889Z,101782.75
2018-01-27T10:44:33.713Z,101782.59
2018-01-27T10:45:39.739Z,101786.16
2018-01-27T10:46:46.248Z,101786.52
2018-01-27T10:47:52.040Z,101785.27
2018-01-27T10:48:57.710Z,101786.20
2018-01-27T10:50:03.564Z,101784.91
2018-01-27T10:51:09.388Z,101783.25
2018-01-27T10:52:15.010Z,101786.16
2018-01-27T10:53:21.553Z,101782.97
2018-01-27T10:54:29.680Z,101789.13
2018-01-27T10:55:36.507Z,101785.38
2018-01-27T10:56:43.804Z,101790.74
2018-01-27T10:57:51.651Z,101792.70
2018-01-27T10:58:58.485Z,101796.78
2018-01-27T11:00:05.371Z,101796.22
2018-01-27T11:01:11.503Z,101796.37
2018-01-27T11:02:19.430Z,101795.40
2018-01-27T11:03:25.276Z,101797.03
2018-01-27T11:04:31.695Z,101795.51
2018-01-27T11:05:37.156Z,101795.17
2018-01-27T11:06:43.941Z,101789.02
2018-01-27T11:07:52.281Z,101798.58
2018-01-27T11:08:58.070Z,101798.38
2018-01-27T11:10:05.818Z,101797.98
2018-01-27T11:11:13.139Z,101801.70
2018-01-27T11:12:20.671Z,101805.86
2018-01-27T11:13:27.635Z,101803.67
2018-01-27T11:14:34.938Z,101801.04
2018-01-27T11:15:40.766Z,101807.38
2018-01-27T11:16:48.117Z,101805.77
2018-01-27T11:17:53.880Z,101810.61
2018-01-27T11:19:02.457Z,101810.31
2018-01-27T11:20:08.219Z,101807.50
2018-01-27T11:21:14.809Z,101795.99
2018-01-27T11:22:20.319Z,101803.25
2018-01-27T11:23:26.189Z,101800.63
2018-01-27T11:24:32.026Z,101807.58
2018-01-27T11:25:38.553Z,101801.62
2018-01-27T11:26:44.329Z,101799.59
2018-01-27T11:27:51.972Z,101796.09
2018-01-27T11:28:57.756Z,101802.32
2018-01-27T11:30:07.033Z,101793.56
2018-01-27T11:31:13.614Z,101797.09
2018-01-27T11:32:20.310Z,101800.05
2018-01-27T11:33:26.286Z,101799.05
2018-01-27T11:34:32.263Z,101805.14
2018-01-27T11:35:38.154Z,101806.00
2018-01-27T11:36:45.129Z,101804.52
2018-01-27T11:37:50.884Z,101805.59
2018-01-27T11:38:56.660Z,101809.44
2018-01-27T11:40:03.299Z,101802.84
2018-01-27T11:41:10.145Z,101803.70
2018-01-27T11:42:16.007Z,101802.29
2018-01-27T11:43:22.749Z,101803.05
2018-01-27T11:44:28.786Z,101799.95
2018-01-27T11:45:34.636Z,101799.47
2018-01-27T11:46:40.482Z,101800.67
2018-01-27T11:47:48.213Z,101797.97
2018-01-27T11:48:54.039Z,101797.70
2018-01-27T11:49:59.845Z,101798.20
2018-01-27T11:51:05.779Z,101803.73
2018-01-27T11:52:11.738Z,101805.32
2018-01-27T11:53:17.686Z,101801.86
2018-01-27T11:54:23.477Z,101800.86
2018-01-27T11:55:29.542Z,101807.06
2018-01-27T11:56:35.981Z,101805.36
2018-01-27T11:57:42.126Z,101804.08
2018-01-27T11:58:49.022Z,101804.59
2018-01-27T11:59:54.795Z,101796.27
2018-01-27T12:01:00.637Z,101797.08
2018-01-27T12:02:06.790Z,101792.94
2018-01-27T12:03:13.553Z,101793.07
2018-01-27T12:04:19.708Z,101791.31
2018-01-27T12:05:27.989Z,101787.88
2018-01-27T12:06:34.147Z,101793.59
2018-01-27T12:07:40.207Z,101794.06
2018-01-27T12:08:45.689Z,101784.45
2018-01-27T12:09:51.688Z,101787.08
2018-01-27T12:10:58.197Z,101783.02
2018-01-27T12:12:05.104Z,101782.02
2018-01-27T12:13:11.188Z,101784.34
2018-01-27T12:14:17.292Z,101778.70
2018-01-27T12:15:24.385Z,101772.08
2018-01-27T12:16:30.537Z,101777.76
2018-01-27T12:17:36.390Z,101773.44
2018-01-27T12:18:42.629Z,101772.56
2018-01-27T12:19:48.891Z,101766.41
2018-01-27T12:20:55.056Z,101763.30
2018-01-27T12:22:01.193Z,101763.32
2018-01-27T12:23:07.338Z,101765.98
2018-01-27T12:24:13.496Z,101763.84
2018-01-27T12:25:21.584Z,101765.67
2018-01-27T12:26:27.748Z,101767.89
2018-01-27T12:27:33.940Z,101770.02
2018-01-27T12:28:40.101Z,101768.17
2018-01-27T12:29:47.650Z,101767.64
2018-01-27T12:30:54.801Z,101762.79
2018-01-27T12:32:01.652Z,101768.95
2018-01-27T12:33:07.242Z,101759.54